Time;durP1;ratioP1;P1;durP2;ratioP2;P2;SDS_P1;SDS_P2;PMS_P1;PMS_P2;Temp;Humidity;BMP_temperature;BMP_pressure;BME280_temperature;BME280_humidity;BME280_pressure;Samples;Min_cycle;Max_cycle;Signal;HPM_P1;HPM_P2
2024/02/28 00:01:31;;;;;;;20.60;10.67;;;;;;;2.54;100.00;101875.56;5030747;28;20037;-67
2024/02/28 00:03:57;;;;;;;19.03;10.73;;;;;;;2.61;100.00;101895.38;5013065;28;20283;-66
2024/02/28 00:06:22;;;;;;;22.77;11.17;;;;;;;2.62;100.00;101893.59;5031865;28;20069;-66
2024/02/28 00:08:50;;;;;;;19.10;10.43;;;;;;;2.54;100.00;101880.81;5028321;28;20224;-65
2024/02/28 00:11:16;;;;;;;20.73;10.80;;;;;;;2.55;100.00;101885.16;5033744;28;20043;-66
2024/02/28 00:13:42;;;;;;;19.50;11.00;;;;;;;2.46;100.00;101867.25;5033991;28;20379;-69
2024/02/28 00:16:07;;;;;;;17.67;10.63;;;;;;;2.57;100.00;101875.41;5036848;28;20044;-67
2024/02/28 00:18:33;;;;;;;21.47;11.03;;;;;;;2.54;100.00;101880.81;5035204;28;20044;-66
2024/02/28 00:20:58;;;;;;;18.10;11.17;;;;;;;2.23;100.00;101822.97;5035669;28;20042;-68
2024/02/28 00:23:24;;;;;;;19.17;10.93;;;;;;;2.43;100.00;101851.66;5035502;28;20083;-67
2024/02/28 00:25:52;;;;;;;24.93;11.57;;;;;;;2.55;100.00;101869.38;5030594;28;20119;-68
2024/02/28 00:28:19;;;;;;;22.38;11.95;;;;;;;2.51;100.00;101859.13;5035418;28;20521;-70
2024/02/28 00:30:44;;;;;;;22.97;12.90;;;;;;;2.54;100.00;101870.31;5033582;28;20112;-67
2024/02/28 00:33:10;;;;;;;30.77;13.17;;;;;;;2.33;100.00;101866.25;5034196;28;20268;-68
2024/02/28 00:35:35;;;;;;;23.47;12.07;;;;;;;2.16;100.00;101870.59;5034328;28;20029;-67
2024/02/28 00:38:02;;;;;;;26.57;12.50;;;;;;;1.90;100.00;101855.34;5034866;28;20511;-66
2024/02/28 00:40:28;;;;;;;26.70;13.03;;;;;;;1.87;100.00;101850.28;5035073;28;20042;-69
2024/02/28 00:42:55;;;;;;;22.20;12.37;;;;;;;2.02;100.00;101859.97;5033942;28;20772;-67
2024/02/28 00:45:20;;;;;;;28.03;12.30;;;;;;;2.24;100.00;101882.47;5035236;28;20679;-68
2024/02/28 00:47:46;;;;;;;24.80;12.70;;;;;;;2.32;100.00;101872.44;5032927;28;20276;-68
2024/02/28 00:50:11;;;;;;;23.47;11.77;;;;;;;2.39;100.00;101860.66;5021313;28;20585;-68
2024/02/28 00:52:37;;;;;;;19.70;11.43;;;;;;;2.03;100.00;101806.50;5021933;28;20506;-68
2024/02/28 00:55:04;;;;;;;18.50;11.50;;;;;;;2.35;100.00;101851.22;5034825;28;20075;-68
2024/02/28 00:57:30;;;;;;;20.57;11.73;;;;;;;2.36;100.00;101852.94;5035108;28;20065;-66
2024/02/28 00:59:56;;;;;;;21.43;11.23;;;;;;;2.55;100.00;101872.00;5017666;28;20850;-68
2024/02/28 01:02:22;;;;;;;23.83;11.67;;;;;;;2.50;100.00;101863.53;5034674;28;20291;-65
2024/02/28 01:04:47;;;;;;;24.40;10.60;;;;;;;2.39;100.00;101863.28;5031315;28;20133;-68
2024/02/28 01:07:13;;;;;;;17.20;10.83;;;;;;;2.27;100.00;101851.63;5034789;28;20041;-67
2024/02/28 01:09:38;;;;;;;24.77;11.50;;;;;;;2.46;100.00;101870.72;5029613;28;20060;-66
2024/02/28 01:12:04;;;;;;;19.23;10.20;;;;;;;2.38;100.00;101857.16;5034609;28;20037;-67
2024/02/28 01:14:30;;;;;;;14.57;8.63;;;;;;;2.39;100.00;101866.75;5031945;28;20038;-68
2024/02/28 01:16:55;;;;;;;13.83;8.53;;;;;;;2.12;100.00;101850.69;5034417;28;20127;-64
2024/02/28 01:19:21;;;;;;;14.37;9.27;;;;;;;2.07;100.00;101884.25;5033584;28;20046;-67
2024/02/28 01:21:46;;;;;;;11.57;8.27;;;;;;;1.87;100.00;101868.66;5034331;28;20041;-69
2024/02/28 01:24:12;;;;;;;11.63;7.63;;;;;;;1.91;100.00;101875.44;5034470;28;20575;-67
2024/02/28 01:26:37;;;;;;;12.77;8.50;;;;;;;1.95;100.00;101892.75;5031259;28;20107;-65
2024/02/28 01:29:03;;;;;;;14.60;9.43;;;;;;;1.97;100.00;101866.38;5034226;28;20404;-68
2024/02/28 01:31:30;;;;;;;15.37;8.63;;;;;;;2.04;100.00;101879.16;5031559;28;20056;-66
2024/02/28 01:33:56;;;;;;;13.03;8.33;;;;;;;2.16;100.00;101885.53;5033856;28;20279;-67
2024/02/28 01:36:22;;;;;;;15.37;8.23;;;;;;;2.14;100.00;101861.94;5033251;28;20426;-65
2024/02/28 01:38:47;;;;;;;14.43;8.57;;;;;;;2.27;100.00;101864.75;5032789;28;20069;-67
2024/02/28 01:41:13;;;;;;;11.33;8.00;;;;;;;2.46;100.00;101878.63;5035109;28;20465;-68
2024/02/28 01:43:38;;;;;;;17.90;8.90;;;;;;;2.29;100.00;101843.66;5033809;28;20383;-65
2024/02/28 01:46:22;;;;;;;15.20;10.13;;;;;;;2.41;100.00;101858.78;5034014;28;20448;-69
2024/02/28 01:48:48;;;;;;;13.40;9.57;;;;;;;2.30;100.00;101851.44;5031773;28;20040;-66
2024/02/28 01:51:13;;;;;;;15.77;10.60;;;;;;;2.46;100.00;101881.25;5032764;28;20330;-67
2024/02/28 01:53:39;;;;;;;14.90;9.43;;;;;;;2.37;100.00;101873.03;5032804;28;20284;-69
2024/02/28 01:56:06;;;;;;;13.87;9.30;;;;;;;2.43;100.00;101877.94;5032684;28;20065;-69
2024/02/28 01:58:32;;;;;;;14.87;9.10;;;;;;;2.41;100.00;101885.06;5030409;28;20659;-69
2024/02/28 02:00:59;;;;;;;17.37;9.97;;;;;;;2.33;100.00;101879.38;5033526;28;20362;-66
2024/02/28 02:03:24;;;;;;;15.23;9.57;;;;;;;2.33;100.00;101879.38;5033313;28;20045;-66
2024/02/28 02:05:50;;;;;;;11.67;8.23;;;;;;;2.18;100.00;101852.97;5031299;28;20344;-67
2024/02/28 02:08:16;;;;;;;14.13;8.30;;;;;;;2.32;100.00;101872.44;5034656;28;20482;-69
2024/02/28 02:10:41;;;;;;;12.40;8.70;;;;;;;2.29;100.00;101870.78;5028015;28;20050;-70
2024/02/28 02:13:07;;;;;;;15.67;10.03;;;;;;;2.33;100.00;101877.59;5033829;28;20029;-65
2024/02/28 02:15:33;;;;;;;15.10;10.30;;;;;;;2.42;100.00;101879.72;5031923;28;20045;-68
2024/02/28 02:17:59;;;;;;;13.73;8.90;;;;;;;2.44;100.00;101888.38;5033099;28;20355;-66
2024/02/28 02:20:29;;;;;;;13.97;8.73;;;;;;;2.35;100.00;101872.25;5032264;28;20809;-66
2024/02/28 02:22:55;;;;;;;16.03;8.83;;;;;;;2.30;100.00;101864.59;5033255;28;20037;-68
2024/02/28 02:25:21;;;;;;;14.57;9.20;;;;;;;2.27;100.00;101882.31;5033059;28;20317;-66
2024/02/28 02:27:47;;;;;;;12.57;8.23;;;;;;;2.12;100.00;101884.84;5029254;28;20049;-70
2024/02/28 02:30:12;;;;;;;14.37;9.53;;;;;;;1.96;100.00;101894.44;5033198;28;20158;-69
2024/02/28 02:32:38;;;;;;;15.63;8.97;;;;;;;1.66;100.00;101849.59;5025708;28;20046;-70
2024/02/28 02:35:04;;;;;;;17.53;10.43;;;;;;;1.78;100.00;101869.16;5032746;28;20037;-67
2024/02/28 02:37:29;;;;;;;14.17;10.00;;;;;;;1.91;100.00;101883.31;5030328;28;20484;-66
2024/02/28 02:39:55;;;;;;;13.20;9.27;;;;;;;1.85;100.00;101854.75;5033215;28;20350;-69
2024/02/28 02:42:21;;;;;;;15.23;9.83;;;;;;;1.92;100.00;101858.75;5030329;28;20056;-67
2024/02/28 02:44:46;;;;;;;12.23;8.33;;;;;;;2.00;100.00;101885.47;5032411;28;20041;-69
2024/02/28 02:47:12;;;;;;;14.57;8.57;;;;;;;1.91;100.00;101875.44;5032499;28;20045;-71
2024/02/28 02:49:38;;;;;;;13.30;8.97;;;;;;;1.77;100.00;101870.06;5031633;28;20033;-68
2024/02/28 02:52:03;;;;;;;10.77;7.97;;;;;;;1.85;100.00;101879.25;5031850;28;20041;-71
2024/02/28 02:54:29;;;;;;;10.70;8.37;;;;;;;1.79;100.00;101865.59;5029983;28;20163;-68
2024/02/28 02:56:55;;;;;;;12.17;8.40;;;;;;;1.55;100.00;101829.16;5033152;28;20041;-68
2024/02/28 02:59:21;;;;;;;15.17;9.97;;;;;;;1.82;100.00;101870.69;5031165;28;20425;-66
2024/02/28 03:01:49;;;;;;;11.83;7.90;;;;;;;1.92;100.00;101887.66;5033300;28;20488;-69
2024/02/28 03:04:15;;;;;;;13.50;8.40;;;;;;;1.86;100.00;101852.06;5036573;28;20612;-67
2024/02/28 03:06:40;;;;;;;11.83;8.33;;;;;;;2.02;100.00;101862.59;5031188;28;20284;-67
2024/02/28 03:09:07;;;;;;;13.23;9.40;;;;;;;2.20;100.00;101879.16;5043851;28;20150;-65
2024/02/28 03:11:35;;;;;;;12.57;9.13;;;;;;;2.24;100.00;101882.47;5022485;28;20031;-68
2024/02/28 03:14:01;;;;;;;11.50;8.80;;;;;;;2.22;100.00;101879.09;5031406;28;20280;-68
2024/02/28 03:16:26;;;;;;;10.97;8.37;;;;;;;2.14;100.00;101859.31;5029881;28;20785;-69
2024/02/28 03:18:53;;;;;;;13.30;9.53;;;;;;;2.24;100.00;101882.47;5032227;28;20382;-72
2024/02/28 03:21:20;;;;;;;13.40;9.30;;;;;;;2.21;100.00;101878.25;5030646;28;20539;-64
2024/02/28 03:23:46;;;;;;;13.47;8.73;;;;;;;2.05;100.00;101866.84;5032136;28;20284;-68
2024/02/28 03:26:12;;;;;;;9.40;8.10;;;;;;;2.16;100.00;101886.38;5032138;28;20949;-69
2024/02/28 03:28:37;;;;;;;13.27;10.00;;;;;;;2.22;100.00;101890.44;5025007;28;20048;-64
2024/02/28 03:31:03;;;;;;;15.00;9.40;;;;;;;2.23;100.00;101892.16;5027694;28;20046;-68
2024/02/28 03:33:31;;;;;;;17.10;10.87;;;;;;;2.09;100.00;101871.00;5035210;28;20064;-70
2024/02/28 03:35:57;;;;;;;10.95;9.40;;;;;;;2.29;100.00;101897.06;5035185;28;20056;-70
2024/02/28 03:38:22;;;;;;;12.43;9.90;;;;;;;1.89;100.00;101835.28;5031966;28;20489;-68
2024/02/28 03:40:48;;;;;;;14.13;11.63;;;;;;;2.14;100.00;101877.72;5034114;28;20040;-68
2024/02/28 03:43:13;;;;;;;15.60;12.60;;;;;;;1.99;100.00;101877.66;5033940;28;20025;-69
2024/02/28 03:45:39;;;;;;;14.87;10.47;;;;;;;1.72;100.00;101853.69;5029656;28;20029;-68
2024/02/28 03:48:05;;;;;;;13.10;10.50;;;;;;;1.99;100.00;101899.53;5033786;28;20045;-69
2024/02/28 03:50:30;;;;;;;13.40;10.93;;;;;;;1.97;100.00;101913.69;5029894;28;20091;-70
2024/02/28 03:52:56;;;;;;;15.00;11.40;;;;;;;1.98;100.00;101908.34;5032023;28;20096;-70
2024/02/28 03:55:22;;;;;;;14.43;11.47;;;;;;;1.91;100.00;101906.97;5031190;28;20065;-68
2024/02/28 03:57:48;;;;;;;13.80;10.60;;;;;;;1.97;100.00;101909.28;5025872;28;20084;-65
2024/02/28 04:00:14;;;;;;;14.13;10.90;;;;;;;1.95;100.00;101902.41;5031841;28;20401;-69
2024/02/28 04:02:40;;;;;;;14.53;10.80;;;;;;;1.77;100.00;101875.31;5029486;28;20759;-70
2024/02/28 04:05:06;;;;;;;13.73;10.47;;;;;;;1.45;100.00;101822.69;5031434;28;20284;-67
2024/02/28 04:07:31;;;;;;;12.50;9.97;;;;;;;1.14;100.00;101775.28;5031043;28;20044;-68
2024/02/28 04:09:57;;;;;;;13.53;10.40;;;;;;;2.06;100.00;101914.06;5032513;28;20466;-66
2024/02/28 04:12:22;;;;;;;12.93;10.73;;;;;;;2.14;100.00;101914.50;5028118;28;20040;-70
2024/02/28 04:14:48;;;;;;;13.23;10.63;;;;;;;2.18;100.00;101920.47;5031990;28;20042;-64
2024/02/28 04:17:14;;;;;;;14.03;10.27;;;;;;;2.20;100.00;101930.88;5031107;28;20029;-72
2024/02/28 04:19:39;;;;;;;15.17;10.50;;;;;;;2.22;100.00;101936.91;5031841;28;20048;-68
2024/02/28 04:22:05;;;;;;;18.63;11.90;;;;;;;2.16;100.00;101931.06;5032406;28;20049;-71
2024/02/28 04:24:32;;;;;;;14.53;10.63;;;;;;;2.00;100.00;101919.63;5030885;28;20422;-65
2024/02/28 04:26:59;;;;;;;15.57;11.37;;;;;;;1.82;100.00;101907.44;5031571;28;20049;-66
2024/02/28 04:29:25;;;;;;;15.50;11.33;;;;;;;1.91;100.00;101942.91;5030111;28;20311;-69
2024/02/28 04:31:51;;;;;;;13.20;10.30;;;;;;;1.61;100.00;101898.03;5031883;28;20274;-66
2024/02/28 04:34:16;;;;;;;15.27;10.90;;;;;;;1.87;100.00;101939.59;5028602;28;20375;-69
2024/02/28 04:36:42;;;;;;;14.10;10.30;;;;;;;1.99;100.00;101944.19;5030745;28;20505;-68
2024/02/28 04:39:08;;;;;;;14.17;10.53;;;;;;;1.90;100.00;101918.41;5006043;28;20033;-68
2024/02/28 04:41:34;;;;;;;13.80;11.73;;;;;;;2.00;100.00;101926.66;5029630;28;20065;-68
2024/02/28 04:44:00;;;;;;;13.57;10.83;;;;;;;2.06;100.00;101927.22;5030201;28;20304;-68
2024/02/28 04:46:25;;;;;;;14.60;11.37;;;;;;;2.14;100.00;101945.19;5027706;28;20073;-68
2024/02/28 04:48:50;;;;;;;12.67;10.47;;;;;;;2.11;100.00;101934.84;5031493;28;20132;-68
2024/02/28 04:51:17;;;;;;;16.27;10.57;;;;;;;2.07;100.00;101939.41;5031099;28;20086;-74
2024/02/28 04:53:43;;;;;;;17.07;11.63;;;;;;;1.76;100.00;101889.38;5032119;28;20512;-70
2024/02/28 04:56:09;;;;;;;12.70;10.60;;;;;;;2.11;100.00;101950.63;5031419;28;20429;-71
2024/02/28 04:58:36;;;;;;;14.43;10.60;;;;;;;2.13;100.00;101944.34;5033447;28;20387;-69
2024/02/28 05:01:01;;;;;;;15.97;11.47;;;;;;;2.05;100.00;101927.28;5031216;28;20041;-72
2024/02/28 05:03:28;;;;;;;14.93;11.27;;;;;;;2.04;100.00;101918.56;5034047;28;20291;-68
2024/02/28 05:05:54;;;;;;;13.03;10.37;;;;;;;2.01;100.00;101915.22;5032949;28;20048;-70
2024/02/28 05:08:20;;;;;;;15.97;11.73;;;;;;;2.02;100.00;101915.13;5022394;28;20272;-67
2024/02/28 05:10:46;;;;;;;14.47;10.90;;;;;;;2.13;100.00;101933.84;5027839;28;20041;-66
2024/02/28 05:13:12;;;;;;;15.63;11.73;;;;;;;2.07;100.00;101928.06;5034209;28;20275;-63
2024/02/28 05:15:38;;;;;;;15.83;10.30;;;;;;;1.48;100.00;101838.28;5030351;28;20624;-63
2024/02/28 05:18:04;;;;;;;12.70;10.57;;;;;;;2.07;100.00;101942.03;5033205;28;20037;-65
2024/02/28 05:20:32;;;;;;;16.37;11.23;;;;;;;2.00;100.00;101927.50;5034488;28;20037;-67
2024/02/28 05:22:58;;;;;;;13.02;10.02;;;;;;;2.01;100.00;101941.50;5034126;28;20037;-65
2024/02/28 05:25:28;;;;;;;14.80;11.30;;;;;;;1.80;100.00;101925.06;5033780;28;20037;-71
2024/02/28 05:27:55;;;;;;;13.43;10.60;;;;;;;1.63;100.00;101919.81;5033661;28;20345;-70
2024/02/28 05:30:20;;;;;;;13.87;10.00;;;;;;;1.87;100.00;101944.84;5032725;28;20308;-65
2024/02/28 05:32:46;;;;;;;12.43;9.93;;;;;;;1.85;100.00;101938.81;5031732;28;21029;-67
2024/02/28 05:35:12;;;;;;;15.67;10.53;;;;;;;1.99;100.00;101949.44;5033676;28;20119;-66
2024/02/28 05:37:37;;;;;;;15.03;10.30;;;;;;;2.00;100.00;101938.00;5033898;28;20102;-66
2024/02/28 05:40:03;;;;;;;14.37;11.00;;;;;;;1.93;100.00;101927.91;5032795;28;20041;-70
2024/02/28 05:42:31;;;;;;;13.80;10.07;;;;;;;1.89;100.00;101927.22;5034871;28;20042;-70
2024/02/28 05:44:56;;;;;;;19.47;12.33;;;;;;;1.88;100.00;101922.91;5031147;28;20276;-68
2024/02/28 05:47:22;;;;;;;16.90;11.03;;;;;;;1.93;100.00;101909.53;5030445;28;20696;-70
2024/02/28 05:49:48;;;;;;;14.77;10.70;;;;;;;2.05;100.00;101928.16;5031102;28;20033;-66
2024/02/28 05:52:14;;;;;;;14.50;10.33;;;;;;;1.98;100.00;101918.00;5032250;28;20276;-74
2024/02/28 05:54:40;;;;;;;14.13;11.40;;;;;;;1.24;100.00;101808.88;5032783;28;20033;-73
2024/02/28 05:57:06;;;;;;;15.50;10.70;;;;;;;1.97;100.00;101921.56;5014937;28;20053;-74
2024/02/28 05:59:31;;;;;;;15.80;11.67;;;;;;;1.96;100.00;101925.13;5033034;28;20352;-69
2024/02/28 06:01:57;;;;;;;16.20;10.87;;;;;;;2.00;100.00;101938.00;5032590;28;20498;-71
2024/02/28 06:04:22;;;;;;;14.30;10.13;;;;;;;1.99;100.00;101930.22;5032462;28;20072;-66
2024/02/28 06:06:49;;;;;;;14.63;10.50;;;;;;;2.16;100.00;101944.19;5033085;28;20087;-66
2024/02/28 06:09:14;;;;;;;32.13;21.40;;;;;;;2.09;100.00;101932.31;5032177;28;20060;-65
2024/02/28 06:11:40;;;;;;;14.77;10.23;;;;;;;2.09;100.00;101927.06;5032806;28;20347;-66
2024/02/28 06:14:06;;;;;;;14.90;10.60;;;;;;;2.26;100.00;101949.81;5031597;28;20427;-68
2024/02/28 06:16:31;;;;;;;12.93;9.90;;;;;;;2.12;100.00;101931.28;5026231;28;20057;-65
2024/02/28 06:18:57;;;;;;;15.13;11.67;;;;;;;2.15;100.00;101931.13;5030867;28;20052;-65
2024/02/28 06:21:23;;;;;;;13.37;10.47;;;;;;;2.20;100.00;101944.88;5032395;28;20044;-68
2024/02/28 06:23:49;;;;;;;15.10;11.77;;;;;;;2.02;100.00;101928.28;5031375;28;20442;-66
2024/02/28 06:26:16;;;;;;;13.80;10.43;;;;;;;1.99;100.00;101925.81;5030953;28;20384;-68
2024/02/28 06:28:45;;;;;;;14.97;10.87;;;;;;;1.88;100.00;101932.56;5032524;28;20476;-66
2024/02/28 06:31:15;;;;;;;17.20;11.33;;;;;;;1.88;100.00;101949.16;5032410;28;20280;-65
2024/02/28 06:33:44;;;;;;;18.47;12.93;;;;;;;1.97;100.00;101953.94;5030670;28;20352;-71
2024/02/28 06:36:10;;;;;;;14.35;10.18;;;;;;;1.95;100.00;101937.41;5031963;28;20280;-69
2024/02/28 06:38:35;;;;;;;12.30;9.87;;;;;;;2.17;100.00;101951.16;5031691;28;20098;-66
2024/02/28 06:41:03;;;;;;;17.73;11.07;;;;;;;1.95;100.00;101900.63;5033654;28;20076;-67
2024/02/28 06:43:29;;;;;;;18.07;11.13;;;;;;;1.95;100.00;101895.38;5032151;28;20291;-68
2024/02/28 06:45:54;;;;;;;15.90;12.00;;;;;;;2.18;100.00;101934.44;5032071;28;20322;-68
2024/02/28 06:48:20;;;;;;;15.60;11.40;;;;;;;2.33;100.00;101959.09;5031902;28;20079;-71
2024/02/28 06:50:46;;;;;;;16.50;10.90;;;;;;;2.36;100.00;101955.44;5031751;28;20038;-67
2024/02/28 06:53:11;;;;;;;18.23;11.03;;;;;;;2.14;100.00;101924.19;5031425;28;20037;-69
2024/02/28 06:55:37;;;;;;;17.87;12.80;;;;;;;2.28;100.00;101947.94;5031756;28;20442;-68
2024/02/28 06:58:03;;;;;;;18.87;12.57;;;;;;;2.19;100.00;101937.94;5032008;28;20041;-69
2024/02/28 07:00:28;;;;;;;15.90;11.27;;;;;;;2.34;100.00;101952.91;5030402;28;20052;-64
2024/02/28 07:02:54;;;;;;;19.73;12.70;;;;;;;2.35;100.00;101956.38;5030364;28;20033;-69
2024/02/28 07:05:20;;;;;;;21.73;13.30;;;;;;;2.20;100.00;101933.50;5031712;28;20132;-66
2024/02/28 07:07:45;;;;;;;22.03;13.73;;;;;;;2.38;100.00;101958.84;5014106;28;20612;-67
2024/02/28 07:10:11;;;;;;;22.33;13.77;;;;;;;2.33;100.00;101955.63;5031515;28;20370;-67
2024/02/28 07:12:37;;;;;;;19.23;12.83;;;;;;;2.28;100.00;101958.47;5031667;28;20041;-67
2024/02/28 07:15:03;;;;;;;22.10;16.43;;;;;;;2.20;100.00;101933.50;5031317;28;20414;-67
2024/02/28 07:17:30;;;;;;;23.87;15.60;;;;;;;2.31;100.00;101939.91;5013996;28;20033;-64
2024/02/28 07:19:55;;;;;;;22.60;16.37;;;;;;;2.37;100.00;101954.53;5031092;28;20296;-66
2024/02/28 07:22:21;;;;;;;22.67;14.77;;;;;;;2.41;100.00;101954.28;5031901;28;20073;-67
2024/02/28 07:24:46;;;;;;;20.07;13.70;;;;;;;2.41;100.00;101949.00;5034021;28;20540;-66
2024/02/28 07:27:13;;;;;;;24.50;15.53;;;;;;;2.37;100.00;101954.53;5032008;28;20060;-65
2024/02/28 07:29:39;;;;;;;24.60;15.43;;;;;;;2.42;100.00;101961.22;5032194;28;20147;-66
2024/02/28 07:32:05;;;;;;;26.53;14.43;;;;;;;2.08;100.00;101920.09;5029984;28;21117;-65
2024/02/28 07:34:30;;;;;;;26.57;15.70;;;;;;;2.32;100.00;101949.50;5030436;28;20034;-64
2024/02/28 07:36:56;;;;;;;22.47;14.40;;;;;;;2.46;100.00;101967.16;5031451;28;20158;-67
2024/02/28 07:39:24;;;;;;;24.17;14.77;;;;;;;2.40;100.00;101959.63;5013538;28;20034;-66
2024/02/28 07:41:50;;;;;;;25.43;14.63;;;;;;;2.53;100.00;101965.91;5030307;28;20279;-65
2024/02/28 07:44:16;;;;;;;27.77;18.27;;;;;;;2.42;100.00;101960.38;5031553;28;20267;-68
2024/02/28 07:46:42;;;;;;;23.63;16.07;;;;;;;2.44;100.00;101953.25;5031853;28;20879;-67
2024/02/28 07:49:08;;;;;;;24.67;15.13;;;;;;;2.29;100.00;101926.00;5031703;28;20135;-67
2024/02/28 07:51:33;;;;;;;23.73;16.33;;;;;;;2.48;100.00;101958.28;5032628;28;20519;-67
2024/02/28 07:54:05;;;;;;;26.20;15.67;;;;;;;2.36;100.00;101921.28;5030672;28;20040;-67
2024/02/28 07:56:30;;;;;;;27.83;16.80;;;;;;;2.57;100.00;101950.81;5030927;28;20516;-65
2024/02/28 07:58:56;;;;;;;32.47;21.00;;;;;;;2.59;100.00;101946.31;5029965;28;20304;-68
2024/02/28 08:01:22;;;;;;;35.33;19.30;;;;;;;2.61;100.00;101934.81;5029563;28;20048;-69
2024/02/28 08:03:48;;;;;;;35.57;22.40;;;;;;;2.47;100.00;101895.25;5030452;28;20579;-65
2024/02/28 08:06:13;;;;;;;34.97;22.23;;;;;;;2.75;100.00;101928.78;5031147;28;20063;-66
2024/02/28 08:08:39;;;;;;;34.63;21.43;;;;;;;2.73;100.00;101906.97;5031339;28;20424;-68
2024/02/28 08:11:04;;;;;;;36.93;22.57;;;;;;;2.99;100.00;101934.50;5031025;28;20041;-68
2024/02/28 08:13:32;;;;;;;39.30;23.23;;;;;;;2.94;100.00;101931.28;5031686;28;20037;-70
2024/02/28 08:15:58;;;;;;;36.97;22.90;;;;;;;2.83;100.00;101925.72;5030795;28;20578;-68
2024/02/28 08:18:27;;;;;;;34.67;23.27;;;;;;;2.30;100.00;101832.19;5030523;28;20041;-69
2024/02/28 08:20:57;;;;;;;36.77;22.60;;;;;;;2.85;100.00;101926.50;5046397;28;20033;-69
2024/02/28 08:23:23;;;;;;;39.07;24.10;;;;;;;2.53;100.00;101888.81;5013525;28;20271;-69
2024/02/28 08:25:50;;;;;;;34.20;21.63;;;;;;;2.84;100.00;101940.59;5030779;28;20368;-68
2024/02/28 08:28:16;;;;;;;36.93;24.23;;;;;;;2.62;100.00;101896.22;5030919;28;20284;-68
2024/02/28 08:30:41;;;;;;;30.70;21.60;;;;;;;2.85;100.00;101927.34;5030842;28;20288;-67
2024/02/28 08:33:13;;;;;;;23.37;15.53;;;;;;;2.76;100.00;101902.41;5030324;28;20387;-67
2024/02/28 08:35:38;;;;;;;30.27;18.20;;;;;;;2.82;100.00;101918.78;5034765;28;20893;-67
2024/02/28 08:38:05;;;;;;;23.97;15.73;;;;;;;2.93;100.00;101943.56;5043550;28;20076;-67
2024/02/28 08:40:30;;;;;;;26.27;16.57;;;;;;;2.94;100.00;101926.00;5040393;28;20045;-67
2024/02/28 08:42:56;;;;;;;24.87;15.87;;;;;;;3.07;100.00;101933.13;5039659;28;20278;-67
2024/02/28 08:45:23;;;;;;;35.77;16.80;;;;;;;2.77;100.00;101880.41;5031675;28;20038;-69
2024/02/28 08:47:48;;;;;;;26.20;16.10;;;;;;;2.76;100.00;101878.72;5065603;28;20287;-70
2024/02/28 08:50:14;;;;;;;25.77;15.83;;;;;;;3.04;100.00;101917.50;5036822;28;20283;-67
2024/02/28 08:52:40;;;;;;;26.23;16.33;;;;;;;3.13;100.00;101920.53;5037949;28;20059;-68
2024/02/28 08:55:06;;;;;;;28.40;16.70;;;;;;;3.20;100.00;101941.19;5035098;28;20124;-68
2024/02/28 08:57:31;;;;;;;24.23;16.37;;;;;;;3.05;100.00;101913.09;5040227;28;20377;-68
2024/02/28 08:59:57;;;;;;;22.53;13.83;;;;;;;3.14;100.00;101917.81;5043759;28;20086;-69
2024/02/28 09:02:22;;;;;;;22.67;17.40;;;;;;;3.40;100.00;101930.34;5045428;28;20485;-73
2024/02/28 09:04:51;;;;;;;20.80;14.87;;;;;;;3.36;100.00;101923.56;5033887;28;20047;-68
2024/02/28 09:07:19;;;;;;;19.90;13.23;;;;;;;3.29;100.00;101938.03;5037357;28;20095;-66
2024/02/28 09:09:45;;;;;;;16.53;12.20;;;;;;;3.03;100.00;101912.31;5036512;28;20312;-72
2024/02/28 09:12:11;;;;;;;20.47;12.37;;;;;;;3.12;100.00;101924.97;5037722;28;20279;-68
2024/02/28 09:14:38;;;;;;;18.63;12.27;;;;;;;3.21;100.00;101908.66;5031601;28;20345;-68
2024/02/28 09:17:04;;;;;;;18.50;12.67;;;;;;;3.36;100.00;101913.03;5036180;28;20304;-66
2024/02/28 09:19:33;;;;;;;21.20;14.47;;;;;;;3.54;100.00;101939.25;5033995;28;20362;-69
2024/02/28 09:21:58;;;;;;;16.97;11.13;;;;;;;3.13;100.00;101883.69;5036374;28;20060;-69
2024/02/28 09:24:25;;;;;;;18.57;12.20;;;;;;;3.52;100.00;101938.50;5038224;28;20334;-69
2024/02/28 09:26:51;;;;;;;20.23;12.13;;;;;;;3.56;100.00;101934.75;5047322;28;20292;-67
2024/02/28 09:29:18;;;;;;;17.07;11.50;;;;;;;3.50;100.00;101911.41;5036912;28;20342;-67
2024/02/28 09:31:44;;;;;;;19.50;12.50;;;;;;;3.63;100.00;101930.81;5046780;28;20519;-69
2024/02/28 09:34:09;;;;;;;17.67;10.97;;;;;;;3.58;100.00;101927.63;5036362;28;20291;-69
2024/02/28 09:36:42;;;;;;;16.63;12.27;;;;;;;3.66;100.00;101935.91;5034839;28;20044;-70
2024/02/28 09:39:08;;;;;;;15.60;11.27;;;;;;;3.65;100.00;101939.47;5036569;28;20531;-69
2024/02/28 09:41:34;;;;;;;15.90;11.43;;;;;;;3.53;100.00;101924.41;5038741;28;20275;-72
2024/02/28 09:44:00;;;;;;;20.07;13.10;;;;;;;3.60;100.00;101942.38;5033250;28;20363;-69
2024/02/28 09:46:25;;;;;;;14.63;10.67;;;;;;;3.64;100.00;101943.06;5035565;28;20452;-67
2024/02/28 09:48:54;;;;;;;20.50;11.57;;;;;;;3.54;100.00;101941.91;5036156;28;20280;-68
2024/02/28 09:51:21;;;;;;;16.42;11.32;;;;;;;3.39;100.00;101915.50;5033527;28;20524;-68
2024/02/28 09:53:47;;;;;;;18.13;12.90;;;;;;;3.43;100.00;101934.59;5036067;28;20379;-67
2024/02/28 09:56:15;;;;;;;17.10;12.20;;;;;;;3.45;100.00;101947.66;5035173;28;20296;-70
2024/02/28 09:58:42;;;;;;;22.23;13.93;;;;;;;3.25;100.00;101940.94;5033219;28;20029;-73
2024/02/28 10:01:11;;;;;;;16.20;11.57;;;;;;;3.10;100.00;101921.56;5035901;28;20366;-71
2024/02/28 10:03:39;;;;;;;17.47;12.67;;;;;;;3.37;100.00;101951.59;5035575;28;20323;-69
2024/02/28 10:06:07;;;;;;;18.73;12.33;;;;;;;3.36;100.00;101949.06;5037339;28;20344;-70
2024/02/28 10:08:34;;;;;;;25.00;14.27;;;;;;;3.31;100.00;101940.56;5040554;28;20276;-70
2024/02/28 10:11:00;;;;;;;23.57;14.93;;;;;;;3.13;100.00;101912.66;5040092;28;20038;-69
2024/02/28 10:13:26;;;;;;;25.20;14.97;;;;;;;3.30;100.00;101933.63;5037494;28;20280;-68
2024/02/28 10:15:52;;;;;;;20.63;13.03;;;;;;;3.35;100.00;101934.19;5038592;28;20496;-69
2024/02/28 10:18:17;;;;;;;26.23;16.10;;;;;;;3.49;100.00;101942.16;5039585;28;20127;-71
2024/02/28 10:20:43;;;;;;;19.63;14.53;;;;;;;3.44;100.00;101923.13;5040141;28;20359;-68
2024/02/28 10:23:09;;;;;;;19.60;12.40;;;;;;;2.76;100.00;101810.31;5040502;28;20033;-67
2024/02/28 10:25:50;;;;;;;23.83;15.60;;;;;;;3.55;100.00;101933.06;5032781;28;20404;-69
2024/02/28 10:28:16;;;;;;;22.77;15.23;;;;;;;3.48;100.00;101924.66;5028701;28;20294;-70
2024/02/28 10:30:41;;;;;;;26.70;16.77;;;;;;;3.49;100.00;101934.25;5033870;28;20300;-68
2024/02/28 10:33:12;;;;;;;35.47;23.00;;;;;;;3.53;100.00;101937.56;5039638;28;20045;-73
2024/02/28 10:35:39;;;;;;;36.57;22.00;;;;;;;3.30;100.00;101920.44;5030875;28;20148;-69
2024/02/28 10:38:06;;;;;;;38.97;23.60;;;;;;;3.23;100.00;101935.75;5037852;28;20370;-71
2024/02/28 10:40:31;;;;;;;40.07;24.20;;;;;;;3.22;100.00;101935.84;5034131;28;20349;-69
2024/02/28 10:42:58;;;;;;;27.93;19.37;;;;;;;3.35;100.00;101926.28;5033445;28;20279;-69
2024/02/28 10:45:29;;;;;;;35.57;22.33;;;;;;;3.27;100.00;101905.69;5037296;28;20045;-68
2024/02/28 10:47:55;;;;;;;30.30;17.47;;;;;;;3.34;100.00;101914.91;5035401;28;20302;-69
2024/02/28 10:50:28;;;;;;;30.63;18.27;;;;;;;3.41;100.00;101913.63;5037346;28;20387;-70
2024/02/28 10:53:00;;;;;;;26.30;17.53;;;;;;;3.38;100.00;101920.84;5035825;28;20283;-70
2024/02/28 10:55:32;;;;;;;27.40;18.83;;;;;;;3.40;100.00;101909.28;5031893;28;20359;-70
2024/02/28 10:58:18;;;;;;;23.57;15.97;;;;;;;3.55;100.00;101917.25;5039424;28;20283;-69
2024/02/28 11:00:45;;;;;;;25.33;16.80;;;;;;;3.52;100.00;101907.75;5035479;28;20295;-73
2024/02/28 11:03:13;;;;;;;23.83;16.83;;;;;;;3.58;100.00;101906.53;5038804;28;20707;-68
2024/02/28 11:05:40;;;;;;;20.63;15.38;;;;;;;3.64;100.00;101922.81;5016606;28;20354;-70
2024/02/28 11:08:10;;;;;;;25.87;17.63;;;;;;;3.63;100.00;101925.56;5033499;28;20037;-70